LFBL/LIG METAR and TAF weather

Enter ICAO airport designator
Station Type Date Time Source
LFBL METAR 2019/10/23 08:30 UTC NOAA

LFBL 230830Z AUTO 09012KT 9999 -RA ///TCU 15/12 Q1009 TEMPO 12015G25KT 4000 RA BKN003 SCT026CB


Station Type Date Time Source
LFBL Decoded METAR 2019/10/23 08:30 UTC NOAA

Limoges, France (LFBL) 45-52N 001-11E 402M
Oct 23, 2019 - 04:30 AM EDT / 2019.10.23 0830 UTC
Wind: from the E (090 degrees) at 14 MPH (12 KT):0
Visibility: greater than 7 mile(s):0
Weather: light rain; Cumulonimbus clouds, towering cumulus clouds observed
Temperature: 59 F (15 C)
Dew Point: 53 F (12 C)
Relative Humidity: 82%
Pressure (altimeter): 29.80 in. Hg (1009 hPa)
ob: LFBL 230830Z AUTO 09012KT 9999 -RA ///TCU 15/12 Q1009 TEMPO 12015G25KT 4000 RA BKN003 SCT026CB
cycle: 8

Station Type Date Time Source
LFBL TAF 2019/10/23 06:21 UTC NOAA

TAF TAF LFBL 230500Z 2306/2406 08012KT CAVOK PROB40
TEMPO 2306/2312 12015G25KT 4000 RA BKN003 SCT026CB
BECMG 2319/2321 16010KT
BECMG 2321/2323 BKN030
BECMG 2401/2403 BKN013

Example: see airport list